sensor_id;sensor_type;location;lat;lon;timestamp;P1;durP1;ratioP1;P2;durP2;ratioP2
10191;SDS011;17580;50.850;4.504;2023-09-19T00:01:43;5.17;;;2.53;;
10191;SDS011;17580;50.850;4.504;2023-09-19T00:04:12;6.73;;;2.10;;
10191;SDS011;17580;50.850;4.504;2023-09-19T00:06:39;9.53;;;2.23;;
10191;SDS011;17580;50.850;4.504;2023-09-19T00:09:08;6.13;;;1.97;;
10191;SDS011;17580;50.850;4.504;2023-09-19T00:11:36;11.07;;;2.47;;
10191;SDS011;17580;50.850;4.504;2023-09-19T00:14:03;8.63;;;2.87;;
10191;SDS011;17580;50.850;4.504;2023-09-19T00:16:33;6.17;;;2.50;;
10191;SDS011;17580;50.850;4.504;2023-09-19T00:19:01;7.70;;;2.60;;
10191;SDS011;17580;50.850;4.504;2023-09-19T00:21:34;8.03;;;2.50;;
10191;SDS011;17580;50.850;4.504;2023-09-19T00:24:03;6.27;;;2.20;;
10191;SDS011;17580;50.850;4.504;2023-09-19T00:26:31;8.70;;;2.70;;
10191;SDS011;17580;50.850;4.504;2023-09-19T00:28:59;11.20;;;2.70;;
10191;SDS011;17580;50.850;4.504;2023-09-19T00:31:31;10.33;;;2.60;;
10191;SDS011;17580;50.850;4.504;2023-09-19T00:33:58;8.40;;;2.73;;
10191;SDS011;17580;50.850;4.504;2023-09-19T00:36:29;4.57;;;2.00;;
10191;SDS011;17580;50.850;4.504;2023-09-19T00:38:57;9.47;;;2.50;;
10191;SDS011;17580;50.850;4.504;2023-09-19T00:41:24;6.70;;;2.67;;
10191;SDS011;17580;50.850;4.504;2023-09-19T00:43:52;8.17;;;2.03;;
10191;SDS011;17580;50.850;4.504;2023-09-19T00:46:19;3.90;;;2.50;;
10191;SDS011;17580;50.850;4.504;2023-09-19T00:48:46;9.00;;;2.80;;
10191;SDS011;17580;50.850;4.504;2023-09-19T00:51:14;5.90;;;2.67;;
10191;SDS011;17580;50.850;4.504;2023-09-19T00:53:44;8.13;;;2.77;;
10191;SDS011;17580;50.850;4.504;2023-09-19T00:56:14;4.90;;;2.47;;
10191;SDS011;17580;50.850;4.504;2023-09-19T00:58:43;10.43;;;3.00;;
10191;SDS011;17580;50.850;4.504;2023-09-19T01:01:11;11.00;;;2.90;;
10191;SDS011;17580;50.850;4.504;2023-09-19T01:03:40;10.13;;;2.63;;
10191;SDS011;17580;50.850;4.504;2023-09-19T01:06:07;8.57;;;2.93;;
10191;SDS011;17580;50.850;4.504;2023-09-19T01:08:34;13.20;;;2.70;;
10191;SDS011;17580;50.850;4.504;2023-09-19T01:11:03;7.10;;;2.70;;
10191;SDS011;17580;50.850;4.504;2023-09-19T01:13:44;10.43;;;3.40;;
10191;SDS011;17580;50.850;4.504;2023-09-19T01:16:19;8.43;;;2.80;;
10191;SDS011;17580;50.850;4.504;2023-09-19T01:18:55;4.07;;;2.30;;
10191;SDS011;17580;50.850;4.504;2023-09-19T01:21:36;8.13;;;2.77;;
10191;SDS011;17580;50.850;4.504;2023-09-19T01:24:18;6.60;;;2.50;;
10191;SDS011;17580;50.850;4.504;2023-09-19T01:27:22;8.43;;;2.97;;
10191;SDS011;17580;50.850;4.504;2023-09-19T01:30:11;6.93;;;2.47;;
10191;SDS011;17580;50.850;4.504;2023-09-19T01:32:42;14.90;;;2.90;;
10191;SDS011;17580;50.850;4.504;2023-09-19T01:35:11;6.40;;;2.20;;
10191;SDS011;17580;50.850;4.504;2023-09-19T01:37:38;5.90;;;1.93;;
10191;SDS011;17580;50.850;4.504;2023-09-19T01:40:09;9.47;;;2.73;;
10191;SDS011;17580;50.850;4.504;2023-09-19T01:42:43;9.90;;;3.20;;
10191;SDS011;17580;50.850;4.504;2023-09-19T01:45:17;6.80;;;1.97;;
10191;SDS011;17580;50.850;4.504;2023-09-19T01:47:50;9.40;;;2.43;;
10191;SDS011;17580;50.850;4.504;2023-09-19T01:50:22;6.73;;;2.77;;
10191;SDS011;17580;50.850;4.504;2023-09-19T01:52:57;5.80;;;2.30;;
10191;SDS011;17580;50.850;4.504;2023-09-19T01:55:29;9.77;;;2.77;;
10191;SDS011;17580;50.850;4.504;2023-09-19T01:58:00;5.50;;;2.37;;
10191;SDS011;17580;50.850;4.504;2023-09-19T02:00:36;6.60;;;1.83;;
10191;SDS011;17580;50.850;4.504;2023-09-19T02:03:07;7.03;;;2.53;;
10191;SDS011;17580;50.850;4.504;2023-09-19T02:05:35;6.33;;;2.43;;
10191;SDS011;17580;50.850;4.504;2023-09-19T02:08:02;5.70;;;2.23;;
10191;SDS011;17580;50.850;4.504;2023-09-19T02:10:30;7.57;;;2.50;;
10191;SDS011;17580;50.850;4.504;2023-09-19T02:12:57;6.97;;;2.33;;
10191;SDS011;17580;50.850;4.504;2023-09-19T02:15:25;5.50;;;2.40;;
10191;SDS011;17580;50.850;4.504;2023-09-19T02:17:54;8.73;;;2.90;;
10191;SDS011;17580;50.850;4.504;2023-09-19T02:20:22;10.87;;;2.90;;
10191;SDS011;17580;50.850;4.504;2023-09-19T02:22:48;6.37;;;2.70;;
10191;SDS011;17580;50.850;4.504;2023-09-19T02:25:17;6.90;;;2.10;;
10191;SDS011;17580;50.850;4.504;2023-09-19T02:27:44;6.73;;;2.50;;
10191;SDS011;17580;50.850;4.504;2023-09-19T02:30:12;11.13;;;2.60;;
10191;SDS011;17580;50.850;4.504;2023-09-19T02:32:41;4.97;;;2.60;;
10191;SDS011;17580;50.850;4.504;2023-09-19T02:35:09;7.03;;;2.60;;
10191;SDS011;17580;50.850;4.504;2023-09-19T02:37:37;9.30;;;3.43;;
10191;SDS011;17580;50.850;4.504;2023-09-19T02:40:05;8.13;;;3.07;;
10191;SDS011;17580;50.850;4.504;2023-09-19T02:42:43;7.93;;;2.63;;
10191;SDS011;17580;50.850;4.504;2023-09-19T02:45:14;6.87;;;2.37;;
10191;SDS011;17580;50.850;4.504;2023-09-19T02:47:42;11.63;;;2.97;;
10191;SDS011;17580;50.850;4.504;2023-09-19T02:50:11;7.50;;;3.13;;
10191;SDS011;17580;50.850;4.504;2023-09-19T02:52:41;10.27;;;2.97;;
10191;SDS011;17580;50.850;4.504;2023-09-19T02:55:09;7.90;;;2.80;;
10191;SDS011;17580;50.850;4.504;2023-09-19T02:57:36;8.87;;;3.33;;
10191;SDS011;17580;50.850;4.504;2023-09-19T03:00:06;11.50;;;3.53;;
10191;SDS011;17580;50.850;4.504;2023-09-19T03:02:35;7.37;;;3.10;;
10191;SDS011;17580;50.850;4.504;2023-09-19T03:05:03;9.40;;;2.80;;
10191;SDS011;17580;50.850;4.504;2023-09-19T03:07:33;5.97;;;2.90;;
10191;SDS011;17580;50.850;4.504;2023-09-19T03:10:02;8.80;;;2.60;;
10191;SDS011;17580;50.850;4.504;2023-09-19T03:12:30;7.63;;;2.60;;
10191;SDS011;17580;50.850;4.504;2023-09-19T03:14:58;8.53;;;2.60;;
10191;SDS011;17580;50.850;4.504;2023-09-19T03:17:26;5.23;;;2.20;;
10191;SDS011;17580;50.850;4.504;2023-09-19T03:19:53;5.30;;;2.40;;
10191;SDS011;17580;50.850;4.504;2023-09-19T03:22:22;4.63;;;2.30;;
10191;SDS011;17580;50.850;4.504;2023-09-19T03:24:51;7.40;;;2.63;;
10191;SDS011;17580;50.850;4.504;2023-09-19T03:27:18;7.10;;;2.47;;
10191;SDS011;17580;50.850;4.504;2023-09-19T03:29:45;4.77;;;2.10;;
10191;SDS011;17580;50.850;4.504;2023-09-19T03:32:12;9.23;;;2.83;;
10191;SDS011;17580;50.850;4.504;2023-09-19T03:34:40;4.47;;;2.40;;
10191;SDS011;17580;50.850;4.504;2023-09-19T03:37:08;6.93;;;2.60;;
10191;SDS011;17580;50.850;4.504;2023-09-19T03:39:35;7.47;;;2.63;;
10191;SDS011;17580;50.850;4.504;2023-09-19T03:42:03;10.20;;;2.50;;
10191;SDS011;17580;50.850;4.504;2023-09-19T03:44:32;6.10;;;2.47;;
10191;SDS011;17580;50.850;4.504;2023-09-19T03:46:59;15.73;;;3.23;;
10191;SDS011;17580;50.850;4.504;2023-09-19T03:49:26;6.50;;;2.43;;
10191;SDS011;17580;50.850;4.504;2023-09-19T03:51:53;6.83;;;2.57;;
10191;SDS011;17580;50.850;4.504;2023-09-19T03:54:20;10.97;;;3.67;;
10191;SDS011;17580;50.850;4.504;2023-09-19T03:56:47;9.07;;;2.77;;
10191;SDS011;17580;50.850;4.504;2023-09-19T03:59:16;5.53;;;2.30;;
10191;SDS011;17580;50.850;4.504;2023-09-19T04:01:44;7.63;;;2.67;;
10191;SDS011;17580;50.850;4.504;2023-09-19T04:04:11;7.23;;;2.73;;
10191;SDS011;17580;50.850;4.504;2023-09-19T04:06:39;9.33;;;3.00;;
10191;SDS011;17580;50.850;4.504;2023-09-19T04:09:06;4.43;;;2.43;;
10191;SDS011;17580;50.850;4.504;2023-09-19T04:11:34;7.07;;;2.47;;
10191;SDS011;17580;50.850;4.504;2023-09-19T04:14:02;9.37;;;3.20;;
10191;SDS011;17580;50.850;4.504;2023-09-19T04:16:32;9.60;;;2.67;;
10191;SDS011;17580;50.850;4.504;2023-09-19T04:18:59;5.97;;;2.63;;
10191;SDS011;17580;50.850;4.504;2023-09-19T04:21:26;4.37;;;2.43;;
10191;SDS011;17580;50.850;4.504;2023-09-19T04:23:54;16.03;;;3.40;;
10191;SDS011;17580;50.850;4.504;2023-09-19T04:26:21;11.27;;;2.93;;
10191;SDS011;17580;50.850;4.504;2023-09-19T04:28:48;8.27;;;2.90;;
10191;SDS011;17580;50.850;4.504;2023-09-19T04:31:15;5.37;;;2.13;;
10191;SDS011;17580;50.850;4.504;2023-09-19T04:33:45;10.70;;;3.57;;
10191;SDS011;17580;50.850;4.504;2023-09-19T04:36:12;7.67;;;2.83;;
10191;SDS011;17580;50.850;4.504;2023-09-19T04:38:39;12.63;;;2.97;;
10191;SDS011;17580;50.850;4.504;2023-09-19T04:41:06;8.07;;;2.93;;
10191;SDS011;17580;50.850;4.504;2023-09-19T04:43:33;9.80;;;2.90;;
10191;SDS011;17580;50.850;4.504;2023-09-19T04:46:00;14.13;;;3.07;;
10191;SDS011;17580;50.850;4.504;2023-09-19T04:48:28;8.37;;;2.63;;
10191;SDS011;17580;50.850;4.504;2023-09-19T04:50:56;8.63;;;2.73;;
10191;SDS011;17580;50.850;4.504;2023-09-19T04:53:24;11.80;;;2.93;;
10191;SDS011;17580;50.850;4.504;2023-09-19T04:55:53;9.80;;;3.13;;
10191;SDS011;17580;50.850;4.504;2023-09-19T04:58:20;6.23;;;2.40;;
10191;SDS011;17580;50.850;4.504;2023-09-19T05:00:47;6.43;;;2.73;;
10191;SDS011;17580;50.850;4.504;2023-09-19T05:03:16;7.67;;;2.43;;
10191;SDS011;17580;50.850;4.504;2023-09-19T05:05:46;9.50;;;2.63;;
10191;SDS011;17580;50.850;4.504;2023-09-19T05:08:14;6.53;;;2.67;;
10191;SDS011;17580;50.850;4.504;2023-09-19T05:10:41;10.37;;;3.33;;
10191;SDS011;17580;50.850;4.504;2023-09-19T05:13:08;9.90;;;2.50;;
10191;SDS011;17580;50.850;4.504;2023-09-19T05:15:37;14.70;;;2.67;;
10191;SDS011;17580;50.850;4.504;2023-09-19T05:18:04;9.03;;;2.87;;
10191;SDS011;17580;50.850;4.504;2023-09-19T05:20:35;11.70;;;3.67;;
10191;SDS011;17580;50.850;4.504;2023-09-19T05:23:03;11.10;;;2.70;;
10191;SDS011;17580;50.850;4.504;2023-09-19T05:25:35;7.70;;;2.27;;
10191;SDS011;17580;50.850;4.504;2023-09-19T05:28:04;5.03;;;2.20;;
10191;SDS011;17580;50.850;4.504;2023-09-19T05:30:32;8.37;;;2.47;;
10191;SDS011;17580;50.850;4.504;2023-09-19T05:33:01;8.80;;;2.10;;
10191;SDS011;17580;50.850;4.504;2023-09-19T05:35:29;8.77;;;2.77;;
10191;SDS011;17580;50.850;4.504;2023-09-19T05:37:57;9.63;;;3.37;;
10191;SDS011;17580;50.850;4.504;2023-09-19T05:40:25;6.40;;;2.53;;
10191;SDS011;17580;50.850;4.504;2023-09-19T05:42:54;15.03;;;3.03;;
10191;SDS011;17580;50.850;4.504;2023-09-19T05:45:21;6.27;;;3.13;;
10191;SDS011;17580;50.850;4.504;2023-09-19T05:47:48;9.80;;;3.03;;
10191;SDS011;17580;50.850;4.504;2023-09-19T05:50:16;10.80;;;2.97;;
10191;SDS011;17580;50.850;4.504;2023-09-19T05:52:47;6.10;;;2.17;;
10191;SDS011;17580;50.850;4.504;2023-09-19T05:55:18;5.77;;;2.37;;
10191;SDS011;17580;50.850;4.504;2023-09-19T05:57:49;6.67;;;2.40;;
10191;SDS011;17580;50.850;4.504;2023-09-19T06:00:18;9.07;;;3.07;;
10191;SDS011;17580;50.850;4.504;2023-09-19T06:02:49;7.90;;;2.57;;
10191;SDS011;17580;50.850;4.504;2023-09-19T06:05:17;5.43;;;2.07;;
10191;SDS011;17580;50.850;4.504;2023-09-19T06:07:45;7.53;;;2.30;;
10191;SDS011;17580;50.850;4.504;2023-09-19T06:10:12;9.73;;;2.70;;
10191;SDS011;17580;50.850;4.504;2023-09-19T06:12:40;6.13;;;2.67;;
10191;SDS011;17580;50.850;4.504;2023-09-19T06:15:08;14.33;;;2.80;;
10191;SDS011;17580;50.850;4.504;2023-09-19T06:17:42;9.03;;;2.40;;
10191;SDS011;17580;50.850;4.504;2023-09-19T06:20:09;7.40;;;2.33;;
10191;SDS011;17580;50.850;4.504;2023-09-19T06:22:40;12.47;;;3.27;;
10191;SDS011;17580;50.850;4.504;2023-09-19T06:25:08;17.40;;;3.17;;
10191;SDS011;17580;50.850;4.504;2023-09-19T06:27:37;7.80;;;2.20;;
10191;SDS011;17580;50.850;4.504;2023-09-19T06:30:07;6.70;;;2.43;;
10191;SDS011;17580;50.850;4.504;2023-09-19T06:32:35;9.93;;;3.03;;
10191;SDS011;17580;50.850;4.504;2023-09-19T06:35:04;5.97;;;2.40;;
10191;SDS011;17580;50.850;4.504;2023-09-19T06:37:33;8.60;;;2.33;;
10191;SDS011;17580;50.850;4.504;2023-09-19T06:40:00;4.80;;;2.47;;
10191;SDS011;17580;50.850;4.504;2023-09-19T06:42:28;5.80;;;2.30;;
10191;SDS011;17580;50.850;4.504;2023-09-19T06:44:55;4.40;;;2.00;;
10191;SDS011;17580;50.850;4.504;2023-09-19T06:47:22;9.93;;;2.70;;
10191;SDS011;17580;50.850;4.504;2023-09-19T06:49:51;8.13;;;2.70;;
10191;SDS011;17580;50.850;4.504;2023-09-19T06:52:19;8.00;;;2.47;;
10191;SDS011;17580;50.850;4.504;2023-09-19T06:54:47;6.00;;;2.67;;
10191;SDS011;17580;50.850;4.504;2023-09-19T06:57:15;6.73;;;2.30;;
10191;SDS011;17580;50.850;4.504;2023-09-19T06:59:42;4.63;;;2.00;;
10191;SDS011;17580;50.850;4.504;2023-09-19T07:02:10;6.23;;;2.47;;
10191;SDS011;17580;50.850;4.504;2023-09-19T07:04:38;6.30;;;2.90;;
10191;SDS011;17580;50.850;4.504;2023-09-19T07:07:05;7.63;;;2.40;;
10191;SDS011;17580;50.850;4.504;2023-09-19T07:09:35;9.80;;;2.63;;
10191;SDS011;17580;50.850;4.504;2023-09-19T07:12:02;5.67;;;2.40;;
10191;SDS011;17580;50.850;4.504;2023-09-19T07:14:29;7.47;;;2.20;;
10191;SDS011;17580;50.850;4.504;2023-09-19T07:16:57;6.67;;;2.63;;
10191;SDS011;17580;50.850;4.504;2023-09-19T07:19:25;8.10;;;2.87;;
10191;SDS011;17580;50.850;4.504;2023-09-19T07:21:53;10.03;;;2.53;;
10191;SDS011;17580;50.850;4.504;2023-09-19T07:24:20;7.60;;;2.50;;
10191;SDS011;17580;50.850;4.504;2023-09-19T07:26:50;8.57;;;2.77;;
10191;SDS011;17580;50.850;4.504;2023-09-19T07:29:17;7.87;;;2.50;;
10191;SDS011;17580;50.850;4.504;2023-09-19T07:31:44;6.53;;;2.30;;
10191;SDS011;17580;50.850;4.504;2023-09-19T07:34:11;8.37;;;2.80;;
10191;SDS011;17580;50.850;4.504;2023-09-19T07:36:39;7.80;;;2.73;;
10191;SDS011;17580;50.850;4.504;2023-09-19T07:39:07;7.93;;;2.80;;
10191;SDS011;17580;50.850;4.504;2023-09-19T07:41:34;8.00;;;2.93;;
10191;SDS011;17580;50.850;4.504;2023-09-19T07:44:03;5.87;;;2.50;;
10191;SDS011;17580;50.850;4.504;2023-09-19T07:46:30;3.87;;;2.10;;
10191;SDS011;17580;50.850;4.504;2023-09-19T07:48:57;6.50;;;2.63;;
10191;SDS011;17580;50.850;4.504;2023-09-19T07:51:25;5.67;;;2.47;;
10191;SDS011;17580;50.850;4.504;2023-09-19T07:53:52;5.43;;;2.30;;
10191;SDS011;17580;50.850;4.504;2023-09-19T07:56:19;9.47;;;2.50;;
10191;SDS011;17580;50.850;4.504;2023-09-19T07:58:47;9.23;;;2.67;;
10191;SDS011;17580;50.850;4.504;2023-09-19T08:01:16;8.63;;;2.50;;
10191;SDS011;17580;50.850;4.504;2023-09-19T08:03:43;5.87;;;2.20;;
10191;SDS011;17580;50.850;4.504;2023-09-19T08:06:10;14.17;;;2.87;;
10191;SDS011;17580;50.850;4.504;2023-09-19T08:08:38;6.23;;;2.90;;
10191;SDS011;17580;50.850;4.504;2023-09-19T08:11:06;8.37;;;2.50;;
10191;SDS011;17580;50.850;4.504;2023-09-19T08:13:36;8.13;;;2.50;;
10191;SDS011;17580;50.850;4.504;2023-09-19T08:16:08;8.80;;;2.33;;
10191;SDS011;17580;50.850;4.504;2023-09-19T08:18:37;6.53;;;2.40;;
10191;SDS011;17580;50.850;4.504;2023-09-19T08:21:05;5.30;;;2.20;;
10191;SDS011;17580;50.850;4.504;2023-09-19T08:23:33;8.27;;;2.80;;
10191;SDS011;17580;50.850;4.504;2023-09-19T08:26:00;8.80;;;2.73;;
10191;SDS011;17580;50.850;4.504;2023-09-19T08:28:31;6.20;;;2.90;;
10191;SDS011;17580;50.850;4.504;2023-09-19T08:31:01;10.17;;;2.57;;
10191;SDS011;17580;50.850;4.504;2023-09-19T08:33:31;6.80;;;2.63;;
10191;SDS011;17580;50.850;4.504;2023-09-19T08:36:00;5.60;;;2.77;;
10191;SDS011;17580;50.850;4.504;2023-09-19T08:38:30;6.77;;;2.80;;
10191;SDS011;17580;50.850;4.504;2023-09-19T08:41:00;8.40;;;3.10;;
10191;SDS011;17580;50.850;4.504;2023-09-19T08:43:31;5.90;;;2.40;;
10191;SDS011;17580;50.850;4.504;2023-09-19T08:46:02;6.60;;;3.20;;
10191;SDS011;17580;50.850;4.504;2023-09-19T08:48:34;6.73;;;3.13;;
10191;SDS011;17580;50.850;4.504;2023-09-19T08:51:06;5.90;;;3.20;;
10191;SDS011;17580;50.850;4.504;2023-09-19T08:53:40;5.73;;;2.83;;
10191;SDS011;17580;50.850;4.504;2023-09-19T08:56:11;6.17;;;3.00;;
10191;SDS011;17580;50.850;4.504;2023-09-19T08:58:43;8.30;;;3.07;;
10191;SDS011;17580;50.850;4.504;2023-09-19T09:01:13;7.17;;;2.60;;
10191;SDS011;17580;50.850;4.504;2023-09-19T09:03:43;6.43;;;2.83;;
10191;SDS011;17580;50.850;4.504;2023-09-19T09:06:15;7.77;;;2.73;;
10191;SDS011;17580;50.850;4.504;2023-09-19T09:08:43;5.60;;;2.77;;
10191;SDS011;17580;50.850;4.504;2023-09-19T09:11:11;5.93;;;2.37;;
10191;SDS011;17580;50.850;4.504;2023-09-19T09:13:38;4.57;;;2.67;;
10191;SDS011;17580;50.850;4.504;2023-09-19T09:16:06;6.17;;;2.53;;
10191;SDS011;17580;50.850;4.504;2023-09-19T09:18:35;6.23;;;2.43;;
10191;SDS011;17580;50.850;4.504;2023-09-19T09:21:02;4.67;;;2.47;;
10191;SDS011;17580;50.850;4.504;2023-09-19T09:23:31;6.93;;;2.43;;
10191;SDS011;17580;50.850;4.504;2023-09-19T09:25:59;5.73;;;2.50;;
10191;SDS011;17580;50.850;4.504;2023-09-19T09:28:28;8.37;;;2.63;;
10191;SDS011;17580;50.850;4.504;2023-09-19T09:30:58;4.70;;;2.33;;
10191;SDS011;17580;50.850;4.504;2023-09-19T09:33:26;5.37;;;2.37;;
10191;SDS011;17580;50.850;4.504;2023-09-19T09:35:54;6.60;;;2.70;;
10191;SDS011;17580;50.850;4.504;2023-09-19T09:38:25;8.90;;;2.37;;
10191;SDS011;17580;50.850;4.504;2023-09-19T09:40:55;6.03;;;2.40;;
10191;SDS011;17580;50.850;4.504;2023-09-19T09:43:30;4.73;;;2.00;;
10191;SDS011;17580;50.850;4.504;2023-09-19T09:46:08;5.80;;;2.37;;
10191;SDS011;17580;50.850;4.504;2023-09-19T09:49:05;5.67;;;2.10;;
10191;SDS011;17580;50.850;4.504;2023-09-19T09:51:45;4.47;;;1.73;;
10191;SDS011;17580;50.850;4.504;2023-09-19T09:54:22;4.57;;;2.00;;
10191;SDS011;17580;50.850;4.504;2023-09-19T09:56:54;4.07;;;2.33;;
10191;SDS011;17580;50.850;4.504;2023-09-19T10:02:13;3.77;;;1.67;;
10191;SDS011;17580;50.850;4.504;2023-09-19T10:04:45;2.70;;;1.80;;
10191;SDS011;17580;50.850;4.504;2023-09-19T10:07:27;4.73;;;2.10;;
10191;SDS011;17580;50.850;4.504;2023-09-19T10:10:01;3.53;;;2.30;;
10191;SDS011;17580;50.850;4.504;2023-09-19T10:12:41;5.07;;;2.07;;
10191;SDS011;17580;50.850;4.504;2023-09-19T10:15:11;4.70;;;1.87;;
10191;SDS011;17580;50.850;4.504;2023-09-19T10:17:40;4.10;;;2.20;;
10191;SDS011;17580;50.850;4.504;2023-09-19T10:20:11;5.13;;;2.30;;
10191;SDS011;17580;50.850;4.504;2023-09-19T10:23:05;6.43;;;2.10;;
10191;SDS011;17580;50.850;4.504;2023-09-19T10:25:38;4.07;;;2.20;;
10191;SDS011;17580;50.850;4.504;2023-09-19T10:28:07;3.53;;;1.93;;
10191;SDS011;17580;50.850;4.504;2023-09-19T10:30:37;2.57;;;2.27;;
10191;SDS011;17580;50.850;4.504;2023-09-19T10:33:07;3.73;;;2.00;;
10191;SDS011;17580;50.850;4.504;2023-09-19T10:35:35;2.10;;;1.90;;
10191;SDS011;17580;50.850;4.504;2023-09-19T10:38:06;2.27;;;1.80;;
10191;SDS011;17580;50.850;4.504;2023-09-19T10:40:35;2.53;;;1.70;;
10191;SDS011;17580;50.850;4.504;2023-09-19T10:43:07;5.53;;;2.20;;
10191;SDS011;17580;50.850;4.504;2023-09-19T10:45:42;3.43;;;2.30;;
10191;SDS011;17580;50.850;4.504;2023-09-19T10:48:12;4.00;;;1.67;;
10191;SDS011;17580;50.850;4.504;2023-09-19T10:50:42;2.13;;;1.60;;
10191;SDS011;17580;50.850;4.504;2023-09-19T10:53:12;3.30;;;1.73;;
10191;SDS011;17580;50.850;4.504;2023-09-19T10:55:40;3.30;;;1.80;;
10191;SDS011;17580;50.850;4.504;2023-09-19T10:58:25;3.23;;;1.80;;
10191;SDS011;17580;50.850;4.504;2023-09-19T11:00:54;2.27;;;1.53;;
10191;SDS011;17580;50.850;4.504;2023-09-19T11:03:26;2.40;;;1.47;;
10191;SDS011;17580;50.850;4.504;2023-09-19T11:06:03;2.30;;;1.63;;
10191;SDS011;17580;50.850;4.504;2023-09-19T11:11:48;3.57;;;1.80;;
10191;SDS011;17580;50.850;4.504;2023-09-19T11:20:17;3.73;;;1.63;;
10191;SDS011;17580;50.850;4.504;2023-09-19T11:25:49;3.17;;;1.57;;
10191;SDS011;17580;50.850;4.504;2023-09-19T11:28:28;2.57;;;1.77;;
10191;SDS011;17580;50.850;4.504;2023-09-19T11:40:25;2.30;;;1.70;;
10191;SDS011;17580;50.850;4.504;2023-09-19T11:42:53;2.47;;;1.63;;
10191;SDS011;17580;50.850;4.504;2023-09-19T11:48:26;1.93;;;1.27;;
10191;SDS011;17580;50.850;4.504;2023-09-19T11:50:56;1.77;;;1.30;;
10191;SDS011;17580;50.850;4.504;2023-09-19T11:53:24;3.67;;;1.40;;
10191;SDS011;17580;50.850;4.504;2023-09-19T11:56:01;4.17;;;1.50;;
10191;SDS011;17580;50.850;4.504;2023-09-19T11:58:35;3.70;;;1.43;;
10191;SDS011;17580;50.850;4.504;2023-09-19T12:01:04;1.83;;;1.50;;
10191;SDS011;17580;50.850;4.504;2023-09-19T12:03:38;3.33;;;2.00;;
10191;SDS011;17580;50.850;4.504;2023-09-19T12:06:13;5.20;;;2.03;;
10191;SDS011;17580;50.850;4.504;2023-09-19T12:08:41;2.87;;;1.80;;
10191;SDS011;17580;50.850;4.504;2023-09-19T12:11:12;3.07;;;1.63;;
10191;SDS011;17580;50.850;4.504;2023-09-19T12:13:41;2.80;;;1.27;;
10191;SDS011;17580;50.850;4.504;2023-09-19T12:16:11;4.37;;;1.47;;
10191;SDS011;17580;50.850;4.504;2023-09-19T12:18:40;2.40;;;1.47;;
10191;SDS011;17580;50.850;4.504;2023-09-19T12:21:22;3.20;;;1.43;;
10191;SDS011;17580;50.850;4.504;2023-09-19T12:24:03;3.07;;;1.43;;
10191;SDS011;17580;50.850;4.504;2023-09-19T12:26:37;1.47;;;1.17;;
10191;SDS011;17580;50.850;4.504;2023-09-19T12:29:15;2.00;;;1.40;;
10191;SDS011;17580;50.850;4.504;2023-09-19T12:31:50;2.20;;;1.17;;
10191;SDS011;17580;50.850;4.504;2023-09-19T12:34:22;3.67;;;1.60;;
10191;SDS011;17580;50.850;4.504;2023-09-19T12:37:07;2.93;;;1.60;;
10191;SDS011;17580;50.850;4.504;2023-09-19T12:39:42;2.60;;;1.40;;
10191;SDS011;17580;50.850;4.504;2023-09-19T12:42:14;4.23;;;1.77;;
10191;SDS011;17580;50.850;4.504;2023-09-19T12:44:42;2.40;;;1.50;;
10191;SDS011;17580;50.850;4.504;2023-09-19T12:47:14;6.23;;;1.63;;
10191;SDS011;17580;50.850;4.504;2023-09-19T12:50:04;4.83;;;1.80;;
10191;SDS011;17580;50.850;4.504;2023-09-19T12:52:37;2.37;;;1.43;;
10191;SDS011;17580;50.850;4.504;2023-09-19T12:55:05;2.97;;;1.30;;
10191;SDS011;17580;50.850;4.504;2023-09-19T12:57:33;3.70;;;1.50;;
10191;SDS011;17580;50.850;4.504;2023-09-19T13:00:00;3.70;;;1.40;;
10191;SDS011;17580;50.850;4.504;2023-09-19T13:02:28;7.33;;;2.00;;
10191;SDS011;17580;50.850;4.504;2023-09-19T13:04:55;5.30;;;1.90;;
10191;SDS011;17580;50.850;4.504;2023-09-19T13:07:42;4.20;;;1.50;;
10191;SDS011;17580;50.850;4.504;2023-09-19T13:10:10;2.70;;;1.30;;
10191;SDS011;17580;50.850;4.504;2023-09-19T13:12:41;2.70;;;1.20;;
10191;SDS011;17580;50.850;4.504;2023-09-19T13:15:13;4.80;;;1.90;;
10191;SDS011;17580;50.850;4.504;2023-09-19T13:17:44;4.10;;;1.47;;
10191;SDS011;17580;50.850;4.504;2023-09-19T13:20:22;2.57;;;1.37;;
10191;SDS011;17580;50.850;4.504;2023-09-19T13:22:55;2.20;;;1.67;;
10191;SDS011;17580;50.850;4.504;2023-09-19T13:25:25;2.43;;;1.70;;
10191;SDS011;17580;50.850;4.504;2023-09-19T13:27:55;4.13;;;1.60;;
10191;SDS011;17580;50.850;4.504;2023-09-19T13:30:26;3.13;;;1.37;;
10191;SDS011;17580;50.850;4.504;2023-09-19T13:33:04;1.87;;;1.50;;
10191;SDS011;17580;50.850;4.504;2023-09-19T13:35:32;4.47;;;1.30;;
10191;SDS011;17580;50.850;4.504;2023-09-19T13:38:01;12.00;;;1.83;;
10191;SDS011;17580;50.850;4.504;2023-09-19T13:40:28;2.33;;;1.60;;
10191;SDS011;17580;50.850;4.504;2023-09-19T13:43:00;3.87;;;1.57;;
10191;SDS011;17580;50.850;4.504;2023-09-19T13:45:27;4.37;;;1.20;;
10191;SDS011;17580;50.850;4.504;2023-09-19T16:45:06;3.63;;;1.80;;
10191;SDS011;17580;50.850;4.504;2023-09-19T16:47:35;2.60;;;1.43;;
10191;SDS011;17580;50.850;4.504;2023-09-19T16:50:02;2.87;;;1.50;;
10191;SDS011;17580;50.850;4.504;2023-09-19T16:52:30;2.77;;;1.90;;
10191;SDS011;17580;50.850;4.504;2023-09-19T16:54:57;5.30;;;1.80;;
10191;SDS011;17580;50.850;4.504;2023-09-19T16:57:24;4.60;;;1.60;;
10191;SDS011;17580;50.850;4.504;2023-09-19T16:59:51;4.27;;;2.00;;
10191;SDS011;17580;50.850;4.504;2023-09-19T17:02:19;4.37;;;2.00;;
10191;SDS011;17580;50.850;4.504;2023-09-19T17:04:46;3.27;;;1.93;;
10191;SDS011;17580;50.850;4.504;2023-09-19T17:07:13;4.87;;;2.07;;
10191;SDS011;17580;50.850;4.504;2023-09-19T17:09:40;3.07;;;1.80;;
10191;SDS011;17580;50.850;4.504;2023-09-19T17:12:07;5.63;;;2.10;;
10191;SDS011;17580;50.850;4.504;2023-09-19T17:14:35;3.17;;;1.97;;
10191;SDS011;17580;50.850;4.504;2023-09-19T17:17:02;2.17;;;1.70;;
10191;SDS011;17580;50.850;4.504;2023-09-19T17:19:31;2.70;;;1.93;;
10191;SDS011;17580;50.850;4.504;2023-09-19T17:21:58;3.20;;;1.90;;
10191;SDS011;17580;50.850;4.504;2023-09-19T17:24:25;4.37;;;2.27;;
10191;SDS011;17580;50.850;4.504;2023-09-19T17:26:52;4.30;;;1.70;;
10191;SDS011;17580;50.850;4.504;2023-09-19T17:29:19;3.43;;;2.13;;
10191;SDS011;17580;50.850;4.504;2023-09-19T17:31:46;4.03;;;2.20;;
10191;SDS011;17580;50.850;4.504;2023-09-19T17:34:12;6.97;;;1.80;;
10191;SDS011;17580;50.850;4.504;2023-09-19T17:36:42;3.87;;;2.20;;
10191;SDS011;17580;50.850;4.504;2023-09-19T17:39:09;4.47;;;2.03;;
10191;SDS011;17580;50.850;4.504;2023-09-19T17:41:39;4.10;;;2.03;;
10191;SDS011;17580;50.850;4.504;2023-09-19T17:44:07;2.63;;;1.77;;
10191;SDS011;17580;50.850;4.504;2023-09-19T17:46:36;3.97;;;1.83;;
10191;SDS011;17580;50.850;4.504;2023-09-19T17:49:04;4.10;;;1.80;;
10191;SDS011;17580;50.850;4.504;2023-09-19T17:51:31;3.73;;;1.90;;
10191;SDS011;17580;50.850;4.504;2023-09-19T17:53:59;4.07;;;1.80;;
10191;SDS011;17580;50.850;4.504;2023-09-19T17:56:27;6.97;;;1.80;;
10191;SDS011;17580;50.850;4.504;2023-09-19T17:58:54;6.57;;;2.20;;
10191;SDS011;17580;50.850;4.504;2023-09-19T18:01:22;7.80;;;2.03;;
10191;SDS011;17580;50.850;4.504;2023-09-19T18:03:51;20.80;;;3.13;;
10191;SDS011;17580;50.850;4.504;2023-09-19T18:06:21;7.13;;;2.73;;
10191;SDS011;17580;50.850;4.504;2023-09-19T18:08:49;5.43;;;1.80;;
10191;SDS011;17580;50.850;4.504;2023-09-19T18:11:18;21.00;;;3.27;;
10191;SDS011;17580;50.850;4.504;2023-09-19T18:13:50;8.77;;;1.90;;
10191;SDS011;17580;50.850;4.504;2023-09-19T18:16:19;6.20;;;2.00;;
10191;SDS011;17580;50.850;4.504;2023-09-19T18:18:47;5.43;;;2.13;;
10191;SDS011;17580;50.850;4.504;2023-09-19T18:21:17;4.50;;;2.13;;
10191;SDS011;17580;50.850;4.504;2023-09-19T18:23:45;1.50;;;1.50;;
10191;SDS011;17580;50.850;4.504;2023-09-19T18:26:13;4.33;;;2.27;;